Emmonak, AK

6:08 AM AKST on December 08, 2016 (GMT -0900)
Mountain Village Airport | | Change Station

Elev 338 ft 62.09 °N, 163.69 °W | Updated 12 minutes ago

Clear
Clear
-2 °F
Feels Like -15 °F
N
7
Wind Variable Wind from NNW

Today
High -- | Low -- °F
--% Chance of Precip.
Yesterday
High -- | Low -- °F
Precip. -- in
Pressure 30.52 in
Visibility 10.0 miles
Clouds Clear
Windchill -15 °F
Dew Point -15 °F
Humidity 54%
Rainfall 0.00 in
Snow Depth Not available.
11:16 AM 4:23 PM
Waxing Gibbous, 64% visible
METAR PAMO 081456Z AUTO 33006KT 10SM CLR M19/M26 A3047 RMK AO2 SLP334 T11891261 56016 FZRANO
Pressure 30.52 in
Visibility 10.0 miles
Clouds Clear
Windchill -15 °F
Dew Point -15 °F
Humidity 54%
Rainfall 0.00 in
Snow Depth Not available.
11:16 AM 4:23 PM
Waxing Gibbous, 64% visible
METAR PAMO 081456Z AUTO 33006KT 10SM CLR M19/M26 A3047 RMK AO2 SLP334 T11891261 56016 FZRANO

10-Day Weather Forecast

Almanac

Astronomy

Dec. 08, 2016 Rise Set
Actual Time
Civil Twilight
Nautical Twilight
Astronomical Twilight
Moon
Length of Visible Light
Length of Day
Tomorrow will be .
, % of the Moon is Illuminated

Today's Extremes

State Highs State Lows

Community

WunderPhotos

Upload Photos

1,956,268 photos uploaded!

WunderBlog® & News

Nearby

Air Quality

  Air Quality AQ Index Pollutant
Not available.

Snow Depth

Station Depth Elevation

Earthquake Activity

City Distance Mag. Time & Date
Minimum magnitude displayed is 2.5.

Coastal Water Temperatures

Place Temperature

Stations

Nearby Weather Stations

Station Location Temp. Windchill Dew Point Humidity Wind Precip. Elev Updated Type
                   

Watches & Warnings

There are currently no watches in effect.